createdAt,value
2023-01-17T00:02:56.982Z,99.65
2023-01-17T00:08:18.025Z,99.54
2023-01-17T00:13:19.573Z,98.98
2023-01-17T00:18:21.088Z,99.71
2023-01-17T00:23:43.648Z,99.60
2023-01-17T00:28:47.019Z,99.88
2023-01-17T00:33:50.282Z,99.55
2023-01-17T00:38:51.740Z,99.74
2023-01-17T00:44:12.093Z,99.33
2023-01-17T00:49:32.524Z,99.04
2023-01-17T00:54:52.576Z,99.27
2023-01-17T01:00:12.831Z,99.11
2023-01-17T01:05:33.889Z,99.19
2023-01-17T01:10:54.707Z,99.09
2023-01-17T01:16:18.556Z,99.00
2023-01-17T01:21:38.855Z,99.20
2023-01-17T01:26:58.718Z,99.19
2023-01-17T01:32:19.283Z,99.06
2023-01-17T01:37:20.691Z,99.15
2023-01-17T01:42:23.724Z,99.30
2023-01-17T01:47:36.901Z,99.16
2023-01-17T01:52:43.390Z,99.13
2023-01-17T01:57:49.235Z,99.12
2023-01-17T02:02:53.472Z,99.22
2023-01-17T02:08:03.660Z,99.14
2023-01-17T02:13:07.812Z,99.25
2023-01-17T02:18:42.823Z,99.27
2023-01-17T02:23:56.493Z,99.41
2023-01-17T02:29:18.344Z,99.35
2023-01-17T02:34:22.928Z,99.17
2023-01-17T02:39:31.782Z,99.17
2023-01-17T02:44:41.039Z,99.35
2023-01-17T02:49:42.638Z,99.06
2023-01-17T02:55:23.829Z,99.09
2023-01-17T03:00:28.446Z,99.00
2023-01-17T03:05:41.338Z,98.88
2023-01-17T03:10:44.239Z,99.48
2023-01-17T03:15:45.904Z,98.99
2023-01-17T03:20:47.697Z,98.93
2023-01-17T03:25:49.663Z,99.01
2023-01-17T03:30:51.327Z,99.05
2023-01-17T03:35:54.528Z,98.97
2023-01-17T03:40:56.126Z,98.42
2023-01-17T03:46:06.714Z,99.01
2023-01-17T03:51:08.307Z,98.87
2023-01-17T03:56:09.955Z,99.23
2023-01-17T04:01:12.103Z,98.69
2023-01-17T04:06:13.692Z,98.76
2023-01-17T04:11:15.445Z,98.73
2023-01-17T04:16:18.800Z,98.43
2023-01-17T04:21:20.461Z,98.24
2023-01-17T04:26:21.982Z,98.09
2023-01-17T04:31:23.539Z,98.01
2023-01-17T04:36:25.076Z,97.87
2023-01-17T04:41:26.706Z,97.31
2023-01-17T04:46:28.478Z,97.52
2023-01-17T04:51:30.066Z,96.79
2023-01-17T04:56:31.562Z,96.41
2023-01-17T05:01:33.236Z,95.80
2023-01-17T05:06:35.007Z,95.32
2023-01-17T05:11:36.607Z,95.08
2023-01-17T05:16:38.093Z,95.12
2023-01-17T05:21:39.634Z,94.82
2023-01-17T05:26:42.982Z,95.15
2023-01-17T05:31:44.518Z,95.24
2023-01-17T05:36:46.341Z,95.43
2023-01-17T05:41:47.966Z,95.76
2023-01-17T05:46:49.481Z,95.63
2023-01-17T05:51:52.376Z,96.44
2023-01-17T05:56:55.089Z,96.28
2023-01-17T06:02:00.598Z,96.24
2023-01-17T06:07:02.118Z,96.82
2023-01-17T06:12:03.931Z,97.13
2023-01-17T06:17:05.469Z,97.12
2023-01-17T06:22:07.342Z,97.01
2023-01-17T06:27:10.482Z,97.24
2023-01-17T06:32:14.016Z,97.35
2023-01-17T06:37:15.607Z,97.27
2023-01-17T06:42:17.214Z,97.24
2023-01-17T06:47:18.693Z,97.30
2023-01-17T06:52:20.229Z,97.47
2023-01-17T06:57:21.763Z,97.29
2023-01-17T07:02:23.330Z,97.19
2023-01-17T07:07:25.038Z,97.55
2023-01-17T07:12:26.617Z,97.43
2023-01-17T07:17:28.138Z,97.30
2023-01-17T07:22:29.998Z,97.47
2023-01-17T07:27:33.432Z,96.87
2023-01-17T07:32:35.360Z,96.83
2023-01-17T07:37:36.979Z,96.83
2023-01-17T07:42:38.563Z,96.36
2023-01-17T07:47:40.270Z,96.38
2023-01-17T07:52:41.879Z,96.26
2023-01-17T07:57:43.445Z,95.65
2023-01-17T08:02:45.203Z,95.54
2023-01-17T08:07:46.918Z,95.08
2023-01-17T08:12:50.063Z,95.20
2023-01-17T08:17:53.270Z,95.25
2023-01-17T08:22:56.608Z,94.92
2023-01-17T08:34:20.751Z,94.68
2023-01-17T08:39:38.092Z,94.22
2023-01-17T08:44:44.475Z,94.26
2023-01-17T08:49:46.555Z,94.06
2023-01-17T08:54:48.343Z,94.13
2023-01-17T08:59:50.577Z,94.12
2023-01-17T09:04:53.673Z,93.99
2023-01-17T09:09:55.938Z,94.04
2023-01-17T09:31:40.899Z,92.83
2023-01-17T09:54:54.161Z,91.52
2023-01-17T10:07:05.351Z,90.72
2023-01-17T10:24:18.959Z,89.46
2023-01-17T10:29:57.883Z,89.44
2023-01-17T10:40:55.527Z,88.80
2023-01-17T10:53:39.398Z,88.10
2023-01-17T10:58:53.188Z,87.34
2023-01-17T11:04:00.941Z,87.17
2023-01-17T11:21:20.790Z,85.63
2023-01-17T11:26:50.486Z,85.17
2023-01-17T11:38:32.792Z,84.48
2023-01-17T11:44:05.024Z,83.99
2023-01-17T11:49:31.143Z,83.54
2023-01-17T11:54:41.040Z,83.18
2023-01-17T11:59:54.984Z,82.67
2023-01-17T12:06:09.123Z,82.10
2023-01-17T12:29:14.823Z,81.73
2023-01-17T12:41:25.486Z,82.54
2023-01-17T12:53:52.112Z,82.85
2023-01-17T13:41:42.161Z,80.96
2023-01-17T13:52:52.898Z,80.95
2023-01-17T13:59:10.244Z,80.82
2023-01-17T16:21:19.538Z,82.99
2023-01-17T17:42:15.546Z,86.04
2023-01-17T17:47:46.023Z,85.97
2023-01-17T17:53:29.047Z,86.56
2023-01-17T17:58:51.617Z,86.50
2023-01-17T18:04:18.851Z,86.89
2023-01-17T18:10:04.207Z,87.21
2023-01-17T18:15:50.397Z,87.83
2023-01-17T18:32:52.387Z,87.98
2023-01-17T18:52:08.703Z,88.18
2023-01-17T18:57:21.385Z,88.14
2023-01-17T19:02:24.251Z,88.21
2023-01-17T19:07:29.219Z,87.80
2023-01-17T19:12:31.122Z,87.82
2023-01-17T19:17:35.651Z,88.09
2023-01-17T19:22:37.883Z,87.85
2023-01-17T19:27:39.548Z,88.10
2023-01-17T19:32:41.239Z,87.73
2023-01-17T19:37:47.822Z,87.99
2023-01-17T19:42:49.505Z,87.78
2023-01-17T19:47:51.293Z,87.66
2023-01-17T19:52:53.242Z,87.97
2023-01-17T19:57:55.182Z,87.67
2023-01-17T20:02:56.990Z,87.81
2023-01-17T20:08:02.458Z,87.71
2023-01-17T20:13:04.805Z,87.53
2023-01-17T20:18:06.415Z,87.43
2023-01-17T20:23:08.579Z,87.48
2023-01-17T20:28:10.310Z,87.21
2023-01-17T20:33:15.295Z,87.27
2023-01-17T20:38:19.187Z,86.84
2023-01-17T20:43:24.932Z,87.11
2023-01-17T20:48:26.871Z,86.76
2023-01-17T20:53:28.434Z,86.76
2023-01-17T20:58:30.918Z,86.66
2023-01-17T21:03:33.898Z,86.82
2023-01-17T21:08:37.465Z,86.88
2023-01-17T21:13:45.063Z,86.39
2023-01-17T21:18:48.166Z,86.50
2023-01-17T21:23:50.854Z,86.06
2023-01-17T21:28:53.186Z,86.30
2023-01-17T21:34:00.562Z,86.21
2023-01-17T21:39:05.589Z,86.13
2023-01-17T21:44:11.899Z,86.02
2023-01-17T21:49:19.610Z,86.16
2023-01-17T21:54:44.074Z,85.98
2023-01-17T21:59:46.005Z,86.09
2023-01-17T22:04:47.587Z,85.89
2023-01-17T22:09:49.173Z,86.23
2023-01-17T22:14:50.828Z,85.92
2023-01-17T22:19:55.524Z,86.11
2023-01-17T22:24:57.291Z,86.19
2023-01-17T22:29:58.786Z,86.42
2023-01-17T22:35:00.291Z,86.49
2023-01-17T22:40:04.803Z,86.78
2023-01-17T22:45:07.702Z,86.54
2023-01-17T22:50:10.003Z,87.00
2023-01-17T22:55:12.132Z,87.44
2023-01-17T23:00:14.503Z,87.72
2023-01-17T23:05:16.215Z,87.81
2023-01-17T23:10:47.468Z,87.86
2023-01-17T23:16:07.790Z,88.13
2023-01-17T23:21:09.513Z,88.05
2023-01-17T23:26:11.013Z,88.10
2023-01-17T23:31:12.665Z,88.13
2023-01-17T23:36:14.271Z,88.14
2023-01-17T23:41:34.442Z,88.02
2023-01-17T23:46:36.096Z,88.47
2023-01-17T23:51:37.741Z,88.24
2023-01-17T23:56:39.253Z,88.59
